createdAt,value
2023-04-15T00:00:50.413Z,73.2897
2023-04-15T00:01:51.118Z,72.4303
2023-04-15T00:02:52.215Z,72.5297
2023-04-15T00:03:53.401Z,73.3035
2023-04-15T00:04:53.374Z,73.4284
2023-04-15T00:05:54.310Z,72.8869
2023-04-15T00:06:55.022Z,73.5311
2023-04-15T00:07:55.460Z,73.7334
2023-04-15T00:08:56.122Z,73.4305
2023-04-15T00:09:56.625Z,73.9258
2023-04-15T00:10:57.217Z,73.7777
2023-04-15T00:11:57.851Z,73.9096
2023-04-15T00:12:58.424Z,73.8957
2023-04-15T00:13:59.129Z,73.7066
2023-04-15T00:14:59.833Z,73.9456
2023-04-15T00:16:00.489Z,74.2556
2023-04-15T00:17:01.574Z,74.4106
2023-04-15T00:18:02.402Z,74.0791
2023-04-15T00:19:03.297Z,74.0799
2023-04-15T00:20:04.213Z,74.6169
2023-04-15T00:21:04.689Z,74.2739
2023-04-15T00:22:05.365Z,74.3348
2023-04-15T00:23:06.103Z,74.2954
2023-04-15T00:24:06.603Z,73.9460
2023-04-15T00:25:07.451Z,74.0829
2023-04-15T00:26:08.432Z,73.7624
2023-04-15T00:27:09.080Z,73.5968
2023-04-15T00:28:09.979Z,73.7297
2023-04-15T00:29:10.859Z,73.8513
2023-04-15T00:30:11.408Z,74.0524
2023-04-15T00:31:12.724Z,74.0365
2023-04-15T00:32:13.379Z,74.2864
2023-04-15T00:33:14.113Z,74.7948
2023-04-15T00:34:14.723Z,74.7760
2023-04-15T00:35:15.206Z,74.9173
2023-04-15T00:36:16.003Z,74.9659
2023-04-15T00:37:16.497Z,75.6278
2023-04-15T00:38:17.114Z,75.7774
2023-04-15T00:39:17.894Z,76.3244
2023-04-15T00:40:18.521Z,76.3569
2023-04-15T00:41:19.313Z,76.9539
2023-04-15T00:42:19.997Z,76.9969
2023-04-15T00:43:20.583Z,77.2490
2023-04-15T00:44:21.197Z,77.7803
2023-04-15T00:45:21.691Z,77.8762
2023-04-15T00:46:22.840Z,78.2997
2023-04-15T00:47:23.613Z,78.8134
2023-04-15T00:48:24.412Z,78.7905
2023-04-15T00:49:25.170Z,78.4394
2023-04-15T00:50:25.842Z,78.4060
2023-04-15T00:51:26.523Z,78.4569
2023-04-15T00:52:27.291Z,78.3435
2023-04-15T00:53:27.885Z,78.3963
2023-04-15T00:54:28.658Z,78.4122
2023-04-15T00:55:29.291Z,78.2043
2023-04-15T00:56:29.870Z,78.1514
2023-04-15T00:57:30.749Z,78.3804
2023-04-15T00:58:31.348Z,78.2593
2023-04-15T00:59:32.126Z,78.2825
2023-04-15T01:00:32.656Z,78.2351
2023-04-15T01:01:33.288Z,77.9277
2023-04-15T01:02:33.748Z,78.1950
2023-04-15T01:03:35.364Z,78.0202
2023-04-15T01:04:35.348Z,77.7582
2023-04-15T01:05:36.398Z,78.1003
2023-04-15T01:06:37.019Z,77.9530
2023-04-15T01:07:37.959Z,78.0454
2023-04-15T01:08:39.037Z,77.9218
2023-04-15T01:09:39.639Z,77.1808
2023-04-15T01:10:40.621Z,76.4609
2023-04-15T01:11:41.230Z,75.9448
2023-04-15T01:12:41.952Z,75.7293
2023-04-15T01:13:42.726Z,75.5660
2023-04-15T01:14:43.626Z,75.1861
2023-04-15T01:15:44.328Z,74.8656
2023-04-15T01:16:45.510Z,75.3585
2023-04-15T01:17:46.167Z,74.6143
2023-04-15T01:18:46.188Z,74.3666
2023-04-15T01:19:46.323Z,73.9071
2023-04-15T01:20:47.099Z,73.4061
2023-04-15T01:21:47.772Z,73.3211
2023-04-15T01:22:48.271Z,73.0907
2023-04-15T01:23:48.916Z,73.0961
2023-04-15T01:24:49.670Z,72.7673
2023-04-15T01:25:50.174Z,72.5196
2023-04-15T01:26:51.055Z,72.1157
2023-04-15T01:27:52.036Z,72.7692
2023-04-15T01:28:52.639Z,73.3012
2023-04-15T01:29:53.375Z,73.3340
2023-04-15T01:30:53.997Z,73.4641
2023-04-15T01:31:55.066Z,73.5344
2023-04-15T01:32:55.590Z,73.2637
2023-04-15T01:33:56.258Z,73.4390
2023-04-15T01:34:57.370Z,73.5562
2023-04-15T01:35:58.188Z,73.4387
2023-04-15T01:36:58.824Z,73.5961
2023-04-15T01:37:59.663Z,73.6157
2023-04-15T01:39:00.347Z,73.7602
2023-04-15T01:40:00.542Z,74.2985
2023-04-15T01:41:01.261Z,74.7571
2023-04-15T01:42:01.930Z,74.8557
2023-04-15T01:43:02.762Z,74.9066
2023-04-15T01:44:03.528Z,74.9518
2023-04-15T01:45:04.079Z,74.9642
2023-04-15T01:46:04.805Z,74.8116
2023-04-15T01:47:06.128Z,74.5062
2023-04-15T01:48:07.192Z,74.5859
2023-04-15T01:49:08.486Z,74.2304
2023-04-15T01:50:09.114Z,74.0653
2023-04-15T01:51:09.814Z,74.2251
2023-04-15T01:52:10.532Z,74.2287
2023-04-15T01:53:11.423Z,74.2497
2023-04-15T01:54:11.899Z,74.5885
2023-04-15T01:55:12.544Z,74.3340
2023-04-15T01:56:14.717Z,74.2571
2023-04-15T01:57:13.651Z,74.3563
2023-04-15T01:58:14.504Z,74.4649
2023-04-15T01:59:14.970Z,74.2765
2023-04-15T02:00:15.668Z,73.8934
2023-04-15T02:01:16.773Z,73.7233
2023-04-15T02:02:17.941Z,73.7909
2023-04-15T02:03:18.479Z,75.1858
2023-04-15T02:04:19.449Z,75.4028
2023-04-15T02:05:20.135Z,75.0561
2023-04-15T02:06:20.799Z,75.0387
2023-04-15T02:07:21.288Z,75.0691
2023-04-15T02:08:21.952Z,75.3075
2023-04-15T02:09:23.049Z,75.4690
2023-04-15T02:10:23.517Z,75.2570
2023-04-15T02:11:24.127Z,75.2981
2023-04-15T02:12:24.546Z,75.5122
2023-04-15T02:13:25.165Z,75.3837
2023-04-15T02:14:26.087Z,75.6549
2023-04-15T02:15:26.602Z,75.9387
2023-04-15T02:16:27.596Z,75.7604
2023-04-15T02:17:28.721Z,75.8427
2023-04-15T02:18:29.599Z,76.1263
2023-04-15T02:19:30.452Z,76.2324
2023-04-15T02:20:31.178Z,76.2224
2023-04-15T02:21:31.819Z,76.2290
2023-04-15T02:22:32.765Z,76.1070
2023-04-15T02:23:33.208Z,75.9387
2023-04-15T02:24:33.937Z,76.3237
2023-04-15T02:25:34.559Z,76.7107
2023-04-15T02:26:34.870Z,76.9963
2023-04-15T02:27:35.585Z,76.9463
2023-04-15T02:28:36.091Z,76.9196
2023-04-15T02:29:36.868Z,77.7335
2023-04-15T02:30:37.679Z,77.8492
2023-04-15T02:31:38.206Z,78.1272
2023-04-15T02:32:39.220Z,77.6872
2023-04-15T02:33:40.069Z,76.5092
2023-04-15T02:34:40.600Z,76.0712
2023-04-15T02:35:41.498Z,75.7690
2023-04-15T02:36:41.887Z,75.4346
2023-04-15T02:37:42.672Z,75.4000
2023-04-15T02:38:43.339Z,75.5206
2023-04-15T02:39:43.865Z,75.2086
2023-04-15T02:40:44.669Z,75.4319
2023-04-15T02:41:45.398Z,75.6121
2023-04-15T02:42:45.948Z,75.9766
2023-04-15T02:43:46.624Z,76.3355
2023-04-15T02:44:47.131Z,76.3362
2023-04-15T02:45:47.867Z,76.4129
2023-04-15T02:46:48.912Z,75.5756
2023-04-15T02:47:49.519Z,75.5836
2023-04-15T02:48:50.185Z,75.8419
2023-04-15T02:49:50.977Z,75.7372
2023-04-15T02:50:52.007Z,75.6703
2023-04-15T02:51:51.863Z,75.3592
2023-04-15T02:52:52.334Z,75.7137
2023-04-15T02:53:52.981Z,75.6612
2023-04-15T02:54:53.762Z,75.6376
2023-04-15T02:55:54.467Z,75.8557
2023-04-15T02:56:55.278Z,75.9523
2023-04-15T02:57:56.256Z,75.5901
2023-04-15T02:58:56.703Z,75.5743
2023-04-15T02:59:57.670Z,75.6625
2023-04-15T03:00:58.289Z,75.6121
2023-04-15T03:01:59.419Z,75.3868
2023-04-15T03:02:59.633Z,75.2613
2023-04-15T03:04:00.938Z,75.4116
2023-04-15T03:05:00.991Z,75.9529
2023-04-15T03:06:01.519Z,76.5305
2023-04-15T03:07:02.046Z,76.5854
2023-04-15T03:08:03.397Z,77.1239
2023-04-15T03:10:03.656Z,77.2820
2023-04-15T03:11:04.163Z,77.4911
2023-04-15T03:12:05.081Z,77.1239
2023-04-15T03:13:05.434Z,76.8186
2023-04-15T03:14:06.182Z,76.7054
2023-04-15T03:15:06.642Z,76.9676
2023-04-15T03:16:07.677Z,76.7919
2023-04-15T03:17:08.435Z,76.8057
2023-04-15T03:18:09.139Z,77.0798
2023-04-15T03:19:10.438Z,77.2804
2023-04-15T03:20:11.405Z,77.4766
2023-04-15T03:21:11.934Z,77.5330
2023-04-15T03:22:12.566Z,77.5301
2023-04-15T03:23:13.198Z,76.9108
2023-04-15T03:24:13.673Z,76.5298
2023-04-15T03:25:14.401Z,76.7855
2023-04-15T03:26:15.182Z,77.1161
2023-04-15T03:27:15.603Z,77.5983
2023-04-15T03:28:16.360Z,77.5743
2023-04-15T03:29:16.737Z,77.7836
2023-04-15T03:30:17.463Z,77.6932
2023-04-15T03:31:18.151Z,77.2143
2023-04-15T03:32:18.989Z,77.0096
2023-04-15T03:33:19.926Z,76.8209
2023-04-15T03:34:20.608Z,76.9090
2023-04-15T03:35:21.210Z,76.7140
2023-04-15T03:36:21.760Z,76.7092
2023-04-15T03:37:22.320Z,76.5788
2023-04-15T03:38:22.818Z,76.5229
2023-04-15T03:39:24.062Z,76.2578
2023-04-15T03:40:24.565Z,76.4546
2023-04-15T03:41:25.243Z,76.5877
2023-04-15T03:42:25.915Z,77.1898
2023-04-15T03:43:26.922Z,77.2341
2023-04-15T03:44:27.633Z,76.9849
2023-04-15T03:45:28.088Z,77.1374
2023-04-15T03:46:29.244Z,77.4758
2023-04-15T03:47:30.018Z,77.6465
2023-04-15T03:48:30.580Z,77.5250
2023-04-15T03:49:31.828Z,77.2166
2023-04-15T03:50:32.397Z,77.1504
2023-04-15T03:51:33.042Z,76.8402
2023-04-15T03:52:33.722Z,76.7820
2023-04-15T03:53:34.473Z,76.9607
2023-04-15T03:54:35.040Z,77.0131
2023-04-15T03:55:35.552Z,77.0870
2023-04-15T03:56:35.992Z,76.5124
2023-04-15T03:57:36.640Z,76.5863
2023-04-15T03:58:37.479Z,76.5554
2023-04-15T03:59:38.554Z,76.7937
2023-04-15T04:00:39.163Z,77.0490
2023-04-15T04:01:39.848Z,77.2285
2023-04-15T04:02:40.227Z,77.2685
2023-04-15T04:03:41.035Z,77.0508
2023-04-15T04:04:41.546Z,77.2222
2023-04-15T04:05:42.288Z,77.4669
2023-04-15T04:06:43.044Z,77.5440
2023-04-15T04:07:44.018Z,77.5095
2023-04-15T04:08:44.544Z,77.5862
2023-04-15T04:09:47.154Z,77.6379
2023-04-15T04:10:46.793Z,77.8149
2023-04-15T04:11:47.389Z,77.9562
2023-04-15T04:12:48.051Z,77.9298
2023-04-15T04:13:48.489Z,78.2617
2023-04-15T04:14:49.152Z,78.0795
2023-04-15T04:15:49.941Z,77.9353
2023-04-15T04:16:50.080Z,78.0893
2023-04-15T04:17:51.105Z,78.3525
2023-04-15T04:18:51.608Z,77.8509
2023-04-15T04:19:52.307Z,77.6564
2023-04-15T04:20:53.031Z,77.8751
2023-04-15T04:21:53.528Z,78.0376
2023-04-15T04:22:54.189Z,77.9318
2023-04-15T04:23:54.866Z,78.0986
2023-04-15T04:24:55.254Z,78.1478
2023-04-15T04:25:55.882Z,78.2568
2023-04-15T04:26:56.527Z,78.1711
2023-04-15T04:27:57.064Z,78.5189
2023-04-15T04:28:57.719Z,78.8158
2023-04-15T04:29:58.173Z,78.5060
2023-04-15T04:30:58.665Z,78.6820
2023-04-15T04:31:59.650Z,78.4581
2023-04-15T04:33:00.505Z,77.9874
2023-04-15T04:34:01.104Z,77.3483
2023-04-15T04:35:01.555Z,77.1166
2023-04-15T04:36:02.378Z,76.8249
2023-04-15T04:37:02.977Z,76.4492
2023-04-15T04:38:03.518Z,75.9251
2023-04-15T04:39:04.483Z,76.1127
2023-04-15T04:40:05.178Z,76.1486
2023-04-15T04:41:05.674Z,76.2050
2023-04-15T04:42:06.249Z,76.0253
2023-04-15T04:43:06.835Z,76.0544
2023-04-15T04:44:07.441Z,75.1711
2023-04-15T04:45:08.222Z,75.1400
2023-04-15T04:47:09.554Z,73.8848
2023-04-15T04:48:10.421Z,74.1658
2023-04-15T04:49:11.397Z,73.7817
2023-04-15T04:50:12.085Z,74.1626
2023-04-15T04:51:12.783Z,74.3672
2023-04-15T04:52:13.350Z,74.5423
2023-04-15T04:53:14.036Z,74.5352
2023-04-15T04:54:14.871Z,74.1365
2023-04-15T04:55:15.800Z,74.3926
2023-04-15T04:56:16.383Z,74.3353
2023-04-15T04:57:16.850Z,74.8236
2023-04-15T04:58:17.530Z,74.8645
2023-04-15T04:59:19.918Z,74.5472
2023-04-15T05:00:20.469Z,74.6141
2023-04-15T05:01:21.277Z,74.3889
2023-04-15T05:02:21.837Z,74.4092
2023-04-15T05:03:22.071Z,74.4553
2023-04-15T05:04:22.037Z,74.8089
2023-04-15T05:05:22.487Z,74.7919
2023-04-15T05:06:23.315Z,74.7966
2023-04-15T05:07:23.995Z,75.0554
2023-04-15T05:08:24.548Z,74.9530
2023-04-15T05:09:25.788Z,75.1634
2023-04-15T05:10:26.436Z,74.7646
2023-04-15T05:11:26.884Z,74.5654
2023-04-15T05:12:27.720Z,75.3336
2023-04-15T05:13:28.126Z,75.1908
2023-04-15T05:14:29.217Z,75.2836
2023-04-15T05:15:29.875Z,75.2195
2023-04-15T05:16:30.529Z,75.4438
2023-04-15T05:17:31.475Z,75.5620
2023-04-15T05:18:32.145Z,75.6791
2023-04-15T05:19:33.198Z,75.4193
2023-04-15T05:20:33.874Z,75.4241
2023-04-15T05:21:34.437Z,75.9849
2023-04-15T05:22:34.922Z,76.2097
2023-04-15T05:23:35.819Z,76.3480
2023-04-15T05:24:36.286Z,76.7382
2023-04-15T05:25:36.418Z,76.5902
2023-04-15T05:26:37.042Z,76.3464
2023-04-15T05:27:37.647Z,75.7702
2023-04-15T05:28:38.517Z,75.3541
2023-04-15T05:29:39.307Z,75.0684
2023-04-15T05:30:39.844Z,74.9789
2023-04-15T05:31:40.740Z,74.6378
2023-04-15T05:32:41.839Z,74.5953
2023-04-15T05:33:42.425Z,74.8678
2023-04-15T05:34:43.267Z,74.6746
2023-04-15T05:35:43.736Z,74.8517
2023-04-15T05:36:44.352Z,74.9201
2023-04-15T05:37:45.077Z,75.2986
2023-04-15T05:38:45.543Z,75.1178
2023-04-15T05:39:46.910Z,74.9155
2023-04-15T05:40:46.603Z,74.7567
2023-04-15T05:41:47.295Z,73.7548
2023-04-15T05:42:47.990Z,73.6936
2023-04-15T05:43:48.436Z,73.9879
2023-04-15T05:44:49.293Z,73.7042
2023-04-15T05:45:50.209Z,73.8440
2023-04-15T05:46:50.759Z,74.1450
2023-04-15T05:47:51.616Z,74.1964
2023-04-15T05:48:53.396Z,74.0368
2023-04-15T05:49:53.361Z,73.9204
2023-04-15T05:50:54.099Z,74.1528
2023-04-15T05:51:54.714Z,73.3468
2023-04-15T05:52:55.412Z,73.2401
2023-04-15T05:53:56.184Z,73.3010
2023-04-15T05:54:56.745Z,73.3717
2023-04-15T05:55:57.487Z,73.9422
2023-04-15T05:56:58.400Z,73.5730
2023-04-15T05:57:58.953Z,73.4407
2023-04-15T05:58:59.800Z,73.2566
2023-04-15T06:00:00.567Z,73.1685
2023-04-15T06:01:01.085Z,72.5234
2023-04-15T06:02:01.852Z,72.6654
2023-04-15T06:03:03.077Z,72.9285
2023-04-15T06:04:03.688Z,72.3517
2023-04-15T06:05:03.792Z,72.5374
2023-04-15T06:06:04.413Z,72.3777
2023-04-15T06:07:05.148Z,72.2582
2023-04-15T06:08:05.842Z,72.9590
2023-04-15T06:09:06.019Z,72.6430
2023-04-15T06:10:06.854Z,72.5744
2023-04-15T06:11:07.335Z,72.0628
2023-04-15T06:12:08.176Z,72.4314
2023-04-15T06:13:08.808Z,72.3253
2023-04-15T06:14:09.373Z,71.9585
2023-04-15T06:15:10.204Z,72.2003
2023-04-15T06:16:11.509Z,72.1674
2023-04-15T06:17:12.392Z,72.8322
2023-04-15T06:18:13.357Z,73.0397
2023-04-15T06:19:15.142Z,72.0418
2023-04-15T06:20:14.482Z,71.8162
2023-04-15T06:21:15.487Z,71.5760
2023-04-15T06:22:16.017Z,71.6512
2023-04-15T06:23:16.870Z,71.6186
2023-04-15T06:24:17.560Z,71.6139
2023-04-15T06:25:18.201Z,71.5525
2023-04-15T06:26:18.911Z,71.1002
2023-04-15T06:27:19.435Z,70.1756
2023-04-15T06:28:19.971Z,70.0925
2023-04-15T06:29:20.907Z,70.4697
2023-04-15T06:30:23.496Z,70.4119
2023-04-15T06:31:22.671Z,70.3585
2023-04-15T06:32:23.730Z,69.8895
2023-04-15T06:33:24.578Z,69.6937
2023-04-15T06:34:25.778Z,69.0322
2023-04-15T06:35:26.815Z,68.7016
2023-04-15T06:36:27.616Z,68.6863
2023-04-15T06:37:28.395Z,68.8577
2023-04-15T06:38:29.460Z,68.9179
2023-04-15T06:39:29.953Z,68.6696
2023-04-15T06:40:30.827Z,69.3805
2023-04-15T06:41:31.440Z,67.9917
2023-04-15T06:42:32.155Z,68.5903
2023-04-15T06:43:32.773Z,68.5592
2023-04-15T06:44:34.029Z,67.6738
2023-04-15T06:45:33.678Z,66.6325
2023-04-15T06:46:34.657Z,66.5968
2023-04-15T06:47:35.465Z,67.4145
2023-04-15T06:48:36.143Z,67.8939
2023-04-15T06:49:36.727Z,68.4017
2023-04-15T06:50:37.443Z,68.5941
2023-04-15T06:51:37.922Z,68.9895
2023-04-15T06:52:38.834Z,68.6272
2023-04-15T06:53:39.579Z,68.7084
2023-04-15T06:54:40.146Z,68.9292
2023-04-15T06:55:41.049Z,68.0279
2023-04-15T06:56:41.873Z,67.6813
2023-04-15T06:57:42.481Z,68.1531
2023-04-15T06:58:43.279Z,68.0966
2023-04-15T06:59:44.335Z,67.4665
2023-04-15T07:00:44.948Z,68.5487
2023-04-15T07:01:46.009Z,68.8328
2023-04-15T07:02:46.121Z,68.6081
2023-04-15T07:03:46.966Z,68.2934
2023-04-15T07:04:47.912Z,68.3450
2023-04-15T07:05:48.461Z,68.0185
2023-04-15T07:06:49.320Z,68.4739
2023-04-15T07:07:49.995Z,68.9529
2023-04-15T07:08:50.738Z,68.8017
2023-04-15T07:09:51.864Z,68.6148
2023-04-15T07:10:52.794Z,68.0572
2023-04-15T07:11:53.781Z,67.9496
2023-04-15T07:12:54.988Z,68.9386
2023-04-15T07:13:55.807Z,67.7153
2023-04-15T07:14:56.686Z,67.7034
2023-04-15T07:15:56.878Z,68.1293
2023-04-15T07:16:58.165Z,68.4706
2023-04-15T07:17:59.805Z,68.6346
2023-04-15T07:19:01.331Z,68.9645
2023-04-15T07:21:01.471Z,69.4091
2023-04-15T07:22:02.368Z,69.2730
2023-04-15T07:23:03.108Z,68.8939
2023-04-15T07:24:03.241Z,69.1393
2023-04-15T07:25:04.262Z,69.7534
2023-04-15T07:26:04.452Z,69.6978
2023-04-15T07:27:05.525Z,70.1660
2023-04-15T07:28:06.289Z,70.0038
2023-04-15T07:29:07.817Z,70.2253
2023-04-15T07:30:08.177Z,70.5370
2023-04-15T07:31:08.997Z,70.2167
2023-04-15T07:32:10.226Z,70.3597
2023-04-15T07:33:10.237Z,71.1241
2023-04-15T07:34:10.980Z,70.8800
2023-04-15T07:35:12.044Z,70.6352
2023-04-15T07:36:12.873Z,70.7894
2023-04-15T07:37:13.915Z,71.1141
2023-04-15T07:38:14.923Z,71.7808
2023-04-15T07:39:15.713Z,72.1834
2023-04-15T07:40:16.852Z,72.5643
2023-04-15T07:41:17.601Z,72.6303
2023-04-15T07:42:18.306Z,72.0139
2023-04-15T07:43:19.014Z,72.1632
2023-04-15T07:44:20.031Z,72.6200
2023-04-15T07:45:20.703Z,72.5770
2023-04-15T07:46:21.023Z,72.5659
2023-04-15T07:47:21.289Z,73.1875
2023-04-15T07:48:21.322Z,73.2155
2023-04-15T07:49:22.441Z,73.0016
2023-04-15T07:50:23.202Z,72.4136
2023-04-15T07:51:24.343Z,72.8201
2023-04-15T07:52:25.200Z,72.9609
2023-04-15T07:53:25.980Z,73.1539
2023-04-15T07:54:26.831Z,73.0464
2023-04-15T07:55:28.428Z,73.2625
2023-04-15T07:56:29.003Z,73.2602
2023-04-15T07:57:29.820Z,73.4756
2023-04-15T07:58:30.876Z,73.1188
2023-04-15T07:59:31.884Z,73.1325
2023-04-15T08:00:33.093Z,73.1015
2023-04-15T08:01:33.960Z,73.0985
2023-04-15T08:02:34.269Z,72.8866
2023-04-15T08:03:34.623Z,72.6420
2023-04-15T08:04:35.886Z,72.3240
2023-04-15T08:05:36.694Z,72.5301
2023-04-15T08:06:37.517Z,72.7241
2023-04-15T08:07:38.124Z,72.8147
2023-04-15T08:08:38.920Z,72.7147
2023-04-15T08:09:39.787Z,72.4376
2023-04-15T08:10:40.430Z,72.3870
2023-04-15T08:11:41.440Z,72.4061
2023-04-15T08:12:42.824Z,72.8218
2023-04-15T08:13:45.027Z,71.8256
2023-04-15T08:14:45.445Z,71.7426
2023-04-15T08:15:46.545Z,71.1758
2023-04-15T08:16:47.818Z,71.7223
2023-04-15T08:17:49.085Z,71.3958
2023-04-15T08:18:50.056Z,70.8423
2023-04-15T08:19:51.225Z,71.3011
2023-04-15T08:20:51.872Z,70.9623
2023-04-15T08:21:52.728Z,71.3717
2023-04-15T08:22:53.901Z,70.7538
2023-04-15T08:23:54.886Z,70.8781
2023-04-15T08:24:55.782Z,70.5159
2023-04-15T08:25:56.059Z,71.3261
2023-04-15T08:26:56.951Z,70.6293
2023-04-15T08:27:57.862Z,70.0423
2023-04-15T08:28:58.690Z,69.0922
2023-04-15T08:29:59.023Z,69.5128
2023-04-15T08:30:59.551Z,69.3749
2023-04-15T08:32:00.785Z,68.7384
2023-04-15T08:33:01.672Z,68.3496
2023-04-15T08:34:02.548Z,67.1006
2023-04-15T08:35:03.344Z,67.7304
2023-04-15T08:36:04.192Z,68.4767
2023-04-15T08:37:05.096Z,68.8445
2023-04-15T08:38:06.018Z,68.9418
2023-04-15T08:39:06.830Z,68.7101
2023-04-15T08:40:07.670Z,68.9958
2023-04-15T08:41:08.426Z,68.9510
2023-04-15T08:42:08.511Z,68.8359
2023-04-15T08:43:09.053Z,67.8272
2023-04-15T08:44:09.550Z,67.9116
2023-04-15T08:45:10.746Z,68.1579
2023-04-15T08:46:11.916Z,68.0487
2023-04-15T08:47:13.086Z,68.4164
2023-04-15T08:48:13.619Z,68.1363
2023-04-15T08:49:14.918Z,68.6615
2023-04-15T08:50:16.090Z,68.7391
2023-04-15T08:52:16.493Z,68.7401
2023-04-15T08:53:17.478Z,68.0136
2023-04-15T08:54:18.295Z,67.0722
2023-04-15T08:55:18.364Z,65.6926
2023-04-15T08:56:18.748Z,65.8555
2023-04-15T08:57:19.206Z,66.4814
2023-04-15T08:58:19.279Z,65.7429
2023-04-15T08:59:20.433Z,65.4689
2023-04-15T09:00:20.830Z,65.9806
2023-04-15T09:01:21.898Z,68.0690
2023-04-15T09:02:23.189Z,68.9705
2023-04-15T09:03:23.894Z,70.5587
2023-04-15T09:04:23.761Z,71.6353
2023-04-15T09:05:24.755Z,71.7460
2023-04-15T09:07:25.652Z,72.6944
2023-04-15T09:08:26.794Z,72.6373
2023-04-15T09:09:27.656Z,72.8608
2023-04-15T09:10:28.707Z,74.7759
2023-04-15T09:11:29.581Z,74.7854
2023-04-15T09:12:30.491Z,75.1943
2023-04-15T09:13:30.734Z,74.4259
2023-04-15T09:14:31.547Z,74.0961
2023-04-15T09:15:32.710Z,76.1041
2023-04-15T09:16:33.919Z,76.7364
2023-04-15T09:17:35.035Z,76.6270
2023-04-15T09:18:35.442Z,76.0686
2023-04-15T09:19:35.392Z,77.5101
2023-04-15T09:20:36.160Z,75.9611
2023-04-15T09:21:37.184Z,76.4137
2023-04-15T09:22:37.474Z,76.8300
2023-04-15T09:24:38.031Z,75.2248
2023-04-15T09:25:38.088Z,76.2279
2023-04-15T09:26:38.955Z,75.7998
2023-04-15T09:27:39.443Z,74.5472
2023-04-15T09:28:39.647Z,73.9848
2023-04-15T09:29:40.781Z,74.7614
2023-04-15T09:30:41.649Z,73.3232
2023-04-15T09:31:41.846Z,71.8940
2023-04-15T09:32:43.293Z,72.4186
2023-04-15T09:34:43.144Z,70.1665
2023-04-15T09:35:44.028Z,69.6456
2023-04-15T09:36:44.827Z,69.5982
2023-04-15T09:37:45.616Z,67.7516
2023-04-15T09:38:46.340Z,68.5846
2023-04-15T09:39:47.151Z,69.6986
2023-04-15T09:40:48.240Z,72.9238
2023-04-15T09:41:49.669Z,73.7823
2023-04-15T09:42:52.441Z,71.8599
2023-04-15T09:43:53.540Z,71.2790
2023-04-15T09:44:53.579Z,71.0203
2023-04-15T09:45:54.533Z,72.3520
2023-04-15T09:46:55.254Z,71.9915
2023-04-15T09:47:57.084Z,70.8158
2023-04-15T09:48:56.909Z,70.9888
2023-04-15T09:49:57.867Z,69.6880
2023-04-15T09:50:57.798Z,71.6426
2023-04-15T09:52:04.469Z,70.6554
2023-04-15T09:52:58.731Z,69.3387
2023-04-15T09:53:59.687Z,66.4748
2023-04-15T09:54:59.627Z,64.3151
2023-04-15T09:56:00.152Z,64.0011
2023-04-15T09:57:01.008Z,63.9194
2023-04-15T09:58:01.758Z,63.6031
2023-04-15T09:59:02.782Z,63.7001
2023-04-15T10:00:03.726Z,62.4487
2023-04-15T10:01:04.905Z,63.4677
2023-04-15T10:02:06.061Z,64.6683
2023-04-15T10:03:06.921Z,62.3929
2023-04-15T10:04:07.459Z,62.7648
2023-04-15T10:05:08.219Z,64.3877
2023-04-15T10:06:08.355Z,64.9358
2023-04-15T10:07:09.479Z,65.5868
2023-04-15T10:08:10.573Z,66.4097
2023-04-15T10:09:11.736Z,65.5718
2023-04-15T10:10:12.752Z,66.4076
2023-04-15T10:11:13.890Z,67.0382
2023-04-15T10:12:15.036Z,66.9936
2023-04-15T10:13:15.834Z,67.0285
2023-04-15T10:14:16.859Z,68.4218
2023-04-15T10:15:17.898Z,67.7780
2023-04-15T10:16:18.695Z,69.3161
2023-04-15T10:17:19.823Z,69.6566
2023-04-15T10:18:20.864Z,69.2680
2023-04-15T10:19:21.720Z,70.2238
2023-04-15T10:20:22.668Z,70.5567
2023-04-15T10:21:23.327Z,71.8015
2023-04-15T10:22:24.433Z,72.4464
2023-04-15T10:23:24.695Z,71.0006
2023-04-15T10:24:25.366Z,69.9991
2023-04-15T10:25:26.571Z,71.9238
2023-04-15T10:26:27.151Z,70.1072
2023-04-15T10:27:27.935Z,70.8468
2023-04-15T10:28:28.700Z,69.4263
2023-04-15T10:29:29.958Z,69.6240
2023-04-15T10:30:31.177Z,68.9265
2023-04-15T10:31:32.468Z,69.5350
2023-04-15T10:32:33.428Z,69.4904
2023-04-15T10:33:34.501Z,68.0984
2023-04-15T10:34:34.714Z,68.4507
2023-04-15T10:35:35.332Z,68.6281
2023-04-15T10:36:36.394Z,67.8195
2023-04-15T10:37:37.060Z,67.9712
2023-04-15T10:38:37.874Z,68.0149
2023-04-15T10:39:39.008Z,67.8193
2023-04-15T10:40:39.585Z,69.1117
2023-04-15T10:41:40.264Z,67.9397
2023-04-15T10:43:51.208Z,66.1877
2023-04-15T10:44:51.408Z,67.8755
2023-04-15T10:45:52.562Z,67.4024
2023-04-15T10:46:53.108Z,66.6493
2023-04-15T10:47:54.452Z,66.1376
2023-04-15T10:48:55.220Z,67.2411
2023-04-15T10:49:56.111Z,67.1511
2023-04-15T10:50:57.069Z,67.7388
2023-04-15T10:51:57.679Z,69.9295
2023-04-15T10:52:57.689Z,73.5566
2023-04-15T10:53:58.787Z,73.5290
2023-04-15T10:54:59.511Z,73.2560
2023-04-15T10:56:00.300Z,72.9912
2023-04-15T10:57:00.929Z,72.9840
2023-04-15T10:58:01.576Z,70.7030
2023-04-15T10:59:02.532Z,70.6750
2023-04-15T11:00:03.764Z,70.9237
2023-04-15T11:01:04.532Z,69.7920
2023-04-15T11:02:04.717Z,70.1233
2023-04-15T11:03:05.356Z,70.0234
2023-04-15T11:04:07.818Z,69.7088
2023-04-15T11:05:08.831Z,70.5148
2023-04-15T11:06:08.726Z,71.2055
2023-04-15T11:07:09.750Z,71.8443
2023-04-15T11:08:10.801Z,70.2894
2023-04-15T11:09:12.474Z,70.2650
2023-04-15T11:11:13.340Z,69.4978
2023-04-15T11:12:13.789Z,69.2007
2023-04-15T11:13:20.036Z,68.6901
2023-04-15T11:14:20.805Z,69.2522
2023-04-15T11:15:21.774Z,68.8890
2023-04-15T11:16:22.910Z,68.6578
2023-04-15T11:17:23.316Z,68.4465
2023-04-15T11:18:23.578Z,69.4608
2023-04-15T11:19:24.694Z,69.9276
2023-04-15T11:20:24.590Z,70.6835
2023-04-15T11:21:41.620Z,70.9312
2023-04-15T11:22:42.788Z,72.3069
2023-04-15T11:23:43.011Z,72.4511
2023-04-15T11:24:43.349Z,72.7129
2023-04-15T11:25:44.252Z,73.4412
2023-04-15T11:26:44.082Z,73.6887
2023-04-15T11:27:44.848Z,74.1725
2023-04-15T11:28:45.611Z,74.2813
2023-04-15T11:29:46.644Z,74.5351
2023-04-15T11:30:47.369Z,74.3401
2023-04-15T11:31:48.384Z,74.6697
2023-04-15T11:32:49.644Z,75.0468
2023-04-15T11:33:50.863Z,74.3848
2023-04-15T11:34:51.662Z,74.0939
2023-04-15T11:35:52.245Z,74.1918
2023-04-15T11:36:53.471Z,74.1599
2023-04-15T11:37:54.212Z,73.7377
2023-04-15T11:38:55.043Z,73.1586
2023-04-15T11:39:55.903Z,73.4676
2023-04-15T11:40:57.270Z,74.1214
2023-04-15T11:41:58.022Z,74.0693
2023-04-15T11:42:58.228Z,74.0311
2023-04-15T11:43:59.296Z,74.0177
2023-04-15T11:44:59.871Z,73.2579
2023-04-15T11:46:01.010Z,73.5926
2023-04-15T11:47:02.044Z,73.8622
2023-04-15T11:48:03.089Z,73.6341
2023-04-15T11:49:03.705Z,73.5248
2023-04-15T11:50:04.556Z,73.5943
2023-04-15T11:51:05.221Z,74.1635
2023-04-15T11:52:05.854Z,74.5304
2023-04-15T11:53:08.384Z,74.1690
2023-04-15T11:54:06.711Z,74.1958
2023-04-15T11:55:07.277Z,74.1432
2023-04-15T11:56:07.914Z,74.4482
2023-04-15T11:57:08.703Z,74.3272
2023-04-15T11:58:09.493Z,72.8283
2023-04-15T11:59:10.184Z,72.2991
2023-04-15T12:00:10.933Z,71.9380
2023-04-15T12:01:11.431Z,70.9345
2023-04-15T12:02:12.218Z,71.3932
2023-04-15T12:03:13.584Z,72.2842
2023-04-15T12:04:14.466Z,71.2647
2023-04-15T12:05:15.785Z,71.3882
2023-04-15T12:06:16.805Z,70.5408
2023-04-15T12:07:17.611Z,69.9565
2023-04-15T12:08:18.202Z,69.1402
2023-04-15T12:09:18.882Z,69.4852
2023-04-15T12:10:19.966Z,68.5912
2023-04-15T12:11:20.656Z,67.8123
2023-04-15T12:12:20.889Z,67.8120
2023-04-15T12:13:21.079Z,68.1348
2023-04-15T12:14:21.378Z,67.9755
2023-04-15T12:15:22.150Z,68.8396
2023-04-15T12:16:22.941Z,69.6770
2023-04-15T12:17:23.347Z,69.1160
2023-04-15T12:18:23.736Z,68.9517
2023-04-15T12:19:24.095Z,68.8040
2023-04-15T12:20:25.312Z,69.5231
2023-04-15T12:21:25.430Z,68.6342
2023-04-15T12:22:26.042Z,67.6516
2023-04-15T12:23:26.105Z,67.0904
2023-04-15T12:24:26.851Z,66.5020